createdAt,value
2019-02-07T00:01:55.601Z,100718.41
2019-02-07T00:04:25.924Z,100699.86
2019-02-07T00:06:55.688Z,100699.86
2019-02-07T00:09:25.508Z,100704.45
2019-02-07T00:11:55.334Z,100706.80
2019-02-07T00:14:24.940Z,100697.66
2019-02-07T00:16:54.478Z,100691.75
2019-02-07T00:19:24.152Z,100693.06
2019-02-07T00:21:53.776Z,100696.53
2019-02-07T00:24:23.917Z,100684.23
2019-02-07T00:26:54.144Z,100683.88
2019-02-07T00:29:23.890Z,100680.61
2019-02-07T00:31:53.392Z,100682.65
2019-02-07T00:34:22.884Z,100673.55
2019-02-07T00:36:52.633Z,100672.93
2019-02-07T00:39:22.405Z,100674.16
2019-02-07T00:41:52.077Z,100665.45
2019-02-07T00:44:22.044Z,100663.09
2019-02-07T00:46:52.231Z,100656.20
2019-02-07T00:49:22.533Z,100647.80
2019-02-07T00:51:52.038Z,100628.57
2019-02-07T00:54:22.146Z,100647.66
2019-02-07T00:56:52.362Z,100645.92
2019-02-07T00:59:22.259Z,100637.47
2019-02-07T01:01:52.009Z,100634.96
2019-02-07T01:04:22.019Z,100626.92
2019-02-07T01:06:52.099Z,100622.02
2019-02-07T01:09:22.681Z,100622.90
2019-02-07T01:11:52.504Z,100621.55
2019-02-07T01:14:22.296Z,100616.14
2019-02-07T01:16:52.258Z,100619.69
2019-02-07T01:19:22.098Z,100608.22
2019-02-07T01:21:52.494Z,100597.81
2019-02-07T01:24:22.443Z,100599.66
2019-02-07T01:26:52.072Z,100600.23
2019-02-07T01:29:22.248Z,100598.30
2019-02-07T01:31:52.303Z,100596.45
2019-02-07T01:34:22.635Z,100588.24
2019-02-07T01:36:52.831Z,100587.23
2019-02-07T01:39:22.639Z,100590.92
2019-02-07T01:41:52.161Z,100588.89
2019-02-07T01:44:22.055Z,100579.02
2019-02-07T01:46:52.307Z,100569.31
2019-02-07T01:49:22.324Z,100569.27
2019-02-07T01:51:53.136Z,100569.99
2019-02-07T01:54:22.770Z,100558.19
2019-02-07T01:56:52.515Z,100557.17
2019-02-07T01:59:22.331Z,100560.09
2019-02-07T02:01:52.489Z,100558.98
2019-02-07T02:04:22.293Z,100541.71
2019-02-07T02:06:52.342Z,100546.67
2019-02-07T02:09:22.622Z,100537.65
2019-02-07T02:11:52.385Z,100543.19
2019-02-07T02:14:22.272Z,100534.69
2019-02-07T02:16:52.148Z,100528.80
2019-02-07T02:19:22.174Z,100519.06
2019-02-07T02:21:52.264Z,100514.03
2019-02-07T02:24:22.522Z,100506.79
2019-02-07T02:26:52.632Z,100499.67
2019-02-07T02:29:22.168Z,100500.23
2019-02-07T02:31:52.182Z,100499.55
2019-02-07T02:34:22.553Z,100489.73
2019-02-07T02:36:52.392Z,100496.30
2019-02-07T02:39:22.430Z,100502.73
2019-02-07T02:41:52.233Z,100490.58
2019-02-07T02:44:22.393Z,100493.03
2019-02-07T02:46:52.274Z,100478.88
2019-02-07T02:49:22.302Z,100476.61
2019-02-07T02:51:52.188Z,100477.07
2019-02-07T02:54:50.383Z,100466.30
2019-02-07T02:57:20.913Z,100460.54
2019-02-07T02:59:50.741Z,100449.29
2019-02-07T03:02:33.560Z,100440.73
2019-02-07T03:05:40.536Z,100433.63
2019-02-07T03:08:41.371Z,100438.36
2019-02-07T03:11:39.345Z,100435.74
2019-02-07T03:14:34.593Z,100431.62
2019-02-07T03:17:24.545Z,100427.61
2019-02-07T03:20:16.261Z,100421.23
2019-02-07T03:22:59.805Z,100410.15
2019-02-07T03:25:48.372Z,100408.42
2019-02-07T03:28:52.151Z,100398.72
2019-02-07T03:31:40.253Z,100395.00
2019-02-07T03:34:28.961Z,100391.05
2019-02-07T03:37:08.325Z,100384.91
2019-02-07T03:39:57.160Z,100381.86
2019-02-07T03:42:57.868Z,100371.83
2019-02-07T03:45:42.707Z,100370.50
2019-02-07T03:48:28.557Z,100364.75
2019-02-07T03:51:21.055Z,100363.44
2019-02-07T03:54:16.102Z,100353.41
2019-02-07T03:57:11.318Z,100345.12
2019-02-07T04:00:09.022Z,100337.39
2019-02-07T04:02:49.448Z,100332.03
2019-02-07T04:05:38.692Z,100334.80
2019-02-07T04:08:19.518Z,100328.20
2019-02-07T04:11:07.186Z,100330.17
2019-02-07T04:13:54.795Z,100325.66
2019-02-07T04:16:47.267Z,100323.09
2019-02-07T04:19:38.992Z,100329.37
2019-02-07T04:22:26.689Z,100327.40
2019-02-07T04:25:21.970Z,100312.44
2019-02-07T04:28:10.003Z,100303.45
2019-02-07T04:30:47.866Z,100304.94
2019-02-07T04:33:45.653Z,100311.22
2019-02-07T04:36:35.636Z,100338.59
2019-02-07T04:39:36.545Z,100320.19
2019-02-07T04:42:20.202Z,100326.81
2019-02-07T04:45:10.498Z,100329.74
2019-02-07T04:47:58.194Z,100317.82
2019-02-07T04:50:53.896Z,100320.66
2019-02-07T04:53:34.229Z,100298.77
2019-02-07T04:56:23.289Z,100318.45
2019-02-07T04:59:12.271Z,100308.87
2019-02-07T05:01:52.629Z,100294.10
2019-02-07T05:04:47.839Z,100289.17
2019-02-07T05:07:40.563Z,100288.20
2019-02-07T05:10:26.290Z,100287.44
2019-02-07T05:13:17.263Z,100278.66
2019-02-07T05:16:20.865Z,100270.83
2019-02-07T05:19:09.460Z,100247.41
2019-02-07T05:21:58.645Z,100251.43
2019-02-07T05:24:37.429Z,100248.09
2019-02-07T05:27:17.808Z,100245.46
2019-02-07T05:29:54.517Z,100243.16
2019-02-07T05:33:01.442Z,100240.91
2019-02-07T05:35:52.120Z,100233.57
2019-02-07T05:38:43.714Z,100228.84
2019-02-07T05:41:35.314Z,100213.43
2019-02-07T05:44:24.113Z,100194.27
2019-02-07T05:47:07.079Z,100190.93
2019-02-07T05:50:11.104Z,100192.06
2019-02-07T05:52:58.596Z,100201.30
2019-02-07T05:55:40.775Z,100203.68
2019-02-07T05:58:19.865Z,100205.64
2019-02-07T06:01:03.207Z,100197.45
2019-02-07T06:03:40.170Z,100196.52
2019-02-07T06:06:35.218Z,100186.22
2019-02-07T06:09:17.089Z,100190.83
2019-02-07T06:12:04.376Z,100185.02
2019-02-07T06:14:50.802Z,100186.66
2019-02-07T06:17:42.663Z,100186.36
2019-02-07T06:20:21.442Z,100168.30
2019-02-07T06:23:08.901Z,100157.62
2019-02-07T06:25:55.902Z,100149.48
2019-02-07T06:28:46.503Z,100149.62
2019-02-07T06:31:41.320Z,100149.70
2019-02-07T06:34:29.502Z,100146.58
2019-02-07T06:37:07.424Z,100138.81
2019-02-07T06:40:14.581Z,100132.53
2019-02-07T06:43:00.571Z,100122.33
2019-02-07T06:45:35.786Z,100123.83
2019-02-07T06:48:21.394Z,100123.48
2019-02-07T06:50:56.996Z,100120.25
2019-02-07T06:53:57.842Z,100107.79
2019-02-07T06:56:45.419Z,100095.61
2019-02-07T06:59:37.436Z,100083.62
2019-02-07T07:02:27.021Z,100078.52
2019-02-07T07:05:06.870Z,100072.59
2019-02-07T07:08:02.421Z,100079.27
2019-02-07T07:10:47.099Z,100074.42
2019-02-07T07:13:47.861Z,100069.83
2019-02-07T07:16:27.219Z,100083.86
2019-02-07T07:19:10.378Z,100087.09
2019-02-07T07:21:53.594Z,100079.75
2019-02-07T07:24:33.767Z,100074.52
2019-02-07T07:27:29.243Z,100058.88
2019-02-07T07:30:07.079Z,100058.91
2019-02-07T07:32:59.587Z,100055.39
2019-02-07T07:36:03.603Z,100038.96
2019-02-07T07:39:00.550Z,100034.94
2019-02-07T07:41:49.465Z,100037.13
2019-02-07T07:44:36.831Z,100041.25
2019-02-07T07:47:43.605Z,100039.09
2019-02-07T07:50:39.070Z,100045.10
2019-02-07T07:53:21.758Z,100034.90
2019-02-07T07:56:10.311Z,100035.38
2019-02-07T07:58:57.936Z,100029.20
2019-02-07T08:01:46.490Z,100022.47
2019-02-07T08:04:36.030Z,100020.07
2019-02-07T08:07:34.152Z,100009.69
2019-02-07T08:10:20.140Z,100013.09
2019-02-07T08:13:01.649Z,100014.78
2019-02-07T08:15:49.323Z,100023.28
2019-02-07T08:18:36.476Z,100018.62
2019-02-07T08:21:24.027Z,100020.95
2019-02-07T08:24:11.289Z,100021.59
2019-02-07T08:26:56.616Z,100011.81
2019-02-07T08:29:46.900Z,100013.89
2019-02-07T08:32:44.775Z,100014.13
2019-02-07T08:35:48.943Z,100002.70
2019-02-07T08:38:37.014Z,99997.74
2019-02-07T08:41:24.403Z,99991.78
2019-02-07T08:44:22.069Z,99988.14
2019-02-07T08:47:14.461Z,99986.53
2019-02-07T08:50:18.398Z,99991.86
2019-02-07T08:53:09.763Z,99985.75
2019-02-07T08:55:56.938Z,99995.56
2019-02-07T08:58:45.215Z,99986.73
2019-02-07T09:01:32.106Z,99988.89
2019-02-07T09:04:26.725Z,99988.11
2019-02-07T09:07:14.496Z,99979.55
2019-02-07T09:10:02.034Z,99981.23
2019-02-07T09:12:41.373Z,99971.56
2019-02-07T09:15:32.532Z,99974.70
2019-02-07T09:18:28.414Z,99964.55
2019-02-07T09:21:23.796Z,99974.39
2019-02-07T09:24:04.394Z,99976.38
2019-02-07T09:26:51.619Z,99970.82
2019-02-07T09:29:38.612Z,99969.58
2019-02-07T09:32:19.243Z,99974.42
2019-02-07T09:35:06.551Z,99976.14
2019-02-07T09:37:53.672Z,99960.73
2019-02-07T09:40:40.857Z,99959.05
2019-02-07T09:43:25.474Z,99958.64
2019-02-07T09:46:20.085Z,99960.21
2019-02-07T09:49:02.873Z,99964.57
2019-02-07T09:51:40.847Z,99963.25
2019-02-07T09:54:28.125Z,99948.06
2019-02-07T09:57:16.988Z,99955.72
2019-02-07T10:00:11.754Z,99945.69
2019-02-07T10:03:03.074Z,99944.47
2019-02-07T10:05:46.306Z,99946.86
2019-02-07T10:08:40.870Z,99952.06
2019-02-07T10:11:21.883Z,99958.64
2019-02-07T10:14:09.158Z,99953.38
2019-02-07T10:16:51.873Z,99951.70
2019-02-07T10:19:40.685Z,99943.71
2019-02-07T10:22:27.786Z,99940.11
2019-02-07T10:25:22.616Z,99935.82
2019-02-07T10:28:23.654Z,99937.23
2019-02-07T10:31:03.192Z,99933.80
2019-02-07T10:33:50.348Z,99927.06
2019-02-07T10:36:38.388Z,99933.47
2019-02-07T10:39:35.783Z,99940.95
2019-02-07T10:42:18.014Z,99944.66
2019-02-07T10:45:07.268Z,99949.78
2019-02-07T10:48:03.406Z,99941.24
2019-02-07T10:50:52.988Z,99931.34
2019-02-07T10:53:38.477Z,99935.43
2019-02-07T10:56:33.235Z,99937.61
2019-02-07T10:59:20.968Z,99925.95
2019-02-07T11:02:09.689Z,99919.70
2019-02-07T11:05:07.368Z,99925.34
2019-02-07T11:07:54.889Z,99896.92
2019-02-07T11:10:42.398Z,99902.01
2019-02-07T11:13:43.075Z,99908.41
2019-02-07T11:16:30.685Z,99916.39
2019-02-07T11:19:21.498Z,99904.78
2019-02-07T11:22:24.501Z,99900.95
2019-02-07T11:25:12.022Z,99901.69
2019-02-07T11:28:10.922Z,99894.83
2019-02-07T11:31:03.137Z,99880.55
2019-02-07T11:34:02.044Z,99887.32
2019-02-07T11:36:53.854Z,99890.31
2019-02-07T11:39:31.478Z,99881.07
2019-02-07T11:42:18.436Z,99880.66
2019-02-07T11:45:06.956Z,99882.07
2019-02-07T11:47:46.383Z,99877.91
2019-02-07T11:50:34.308Z,99878.74
2019-02-07T11:53:14.143Z,99878.67
2019-02-07T11:56:06.036Z,99885.09
2019-02-07T11:58:54.524Z,99879.45
2019-02-07T12:01:42.309Z,99881.38
2019-02-07T12:04:43.718Z,99871.03
2019-02-07T12:07:31.166Z,99883.16
2019-02-07T12:10:27.574Z,99879.05
2019-02-07T12:13:15.468Z,99875.11
2019-02-07T12:16:01.471Z,99868.24
2019-02-07T12:18:45.844Z,99865.98
2019-02-07T12:21:46.600Z,99860.05
2019-02-07T12:24:33.937Z,99862.92
2019-02-07T12:27:17.751Z,99871.97
2019-02-07T12:30:05.043Z,99864.72
2019-02-07T12:33:04.813Z,99875.67
2019-02-07T12:35:59.500Z,99883.38
2019-02-07T12:38:42.821Z,99893.35
2019-02-07T12:41:30.418Z,99896.30
2019-02-07T12:44:09.361Z,99886.02
2019-02-07T12:46:56.617Z,99885.10
2019-02-07T12:49:38.038Z,99876.73
2019-02-07T12:52:19.946Z,99881.52
2019-02-07T12:55:28.622Z,99867.47
2019-02-07T12:58:16.189Z,99869.03
2019-02-07T13:01:04.432Z,99868.80
2019-02-07T13:03:54.536Z,99870.74
2019-02-07T13:06:42.382Z,99856.98
2019-02-07T13:09:34.182Z,99850.63
2019-02-07T13:12:22.532Z,99849.87
2019-02-07T13:15:17.249Z,99857.75
2019-02-07T13:18:05.493Z,99845.09
2019-02-07T13:20:53.180Z,99855.73
2019-02-07T13:23:40.542Z,99853.41
2019-02-07T13:26:22.139Z,99847.48
2019-02-07T13:29:13.562Z,99845.63
2019-02-07T13:32:00.772Z,99856.89
2019-02-07T13:34:51.733Z,99858.44
2019-02-07T13:37:30.273Z,99856.11
2019-02-07T13:40:20.017Z,99854.56
2019-02-07T13:43:02.088Z,99845.98
2019-02-07T13:45:49.729Z,99857.20
2019-02-07T13:48:56.857Z,99868.92
2019-02-07T13:51:41.426Z,99849.61
2019-02-07T13:54:21.608Z,99850.16
2019-02-07T13:57:08.618Z,99849.78
2019-02-07T14:00:06.492Z,99863.85
2019-02-07T14:02:54.229Z,99859.80
2019-02-07T14:05:38.615Z,99855.80
2019-02-07T14:08:14.905Z,99844.52
2019-02-07T14:11:05.639Z,99873.30
2019-02-07T14:14:00.319Z,99881.95
2019-02-07T14:16:41.960Z,99872.63
2019-02-07T14:19:24.014Z,99864.50
2019-02-07T14:22:17.457Z,99881.48
2019-02-07T14:25:04.744Z,99877.13
2019-02-07T14:27:45.961Z,99882.07
2019-02-07T14:30:33.154Z,99877.54
2019-02-07T14:33:16.871Z,99877.66
2019-02-07T14:36:08.649Z,99889.30
2019-02-07T14:39:00.196Z,99880.70
2019-02-07T14:41:38.690Z,99880.84
2019-02-07T14:44:26.030Z,99897.08
2019-02-07T14:46:55.805Z,99890.31
2019-02-07T14:49:25.698Z,99889.97
2019-02-07T14:51:56.672Z,99887.23
2019-02-07T14:54:26.198Z,99886.87
2019-02-07T14:56:55.984Z,99897.54
2019-02-07T14:59:26.208Z,99896.45
2019-02-07T15:01:55.691Z,99906.09
2019-02-07T15:04:25.536Z,99893.52
2019-02-07T15:06:55.551Z,99889.64
2019-02-07T15:09:25.362Z,99906.27
2019-02-07T15:11:54.909Z,99908.89
2019-02-07T15:14:24.687Z,99918.94
2019-02-07T15:16:55.163Z,99923.92
2019-02-07T15:19:25.379Z,99919.86
2019-02-07T15:21:54.934Z,99920.47
2019-02-07T15:24:24.863Z,99928.62
2019-02-07T15:26:55.603Z,99929.25
2019-02-07T15:29:25.509Z,99926.88
2019-02-07T15:31:55.286Z,99936.88
2019-02-07T15:34:25.479Z,99936.88
2019-02-07T15:36:55.569Z,99933.97
2019-02-07T15:39:25.397Z,99930.50
2019-02-07T15:41:55.349Z,99937.41
2019-02-07T15:44:25.406Z,99941.56
2019-02-07T15:46:55.364Z,99941.00
2019-02-07T15:49:25.676Z,99947.45
2019-02-07T15:51:55.323Z,99953.33
2019-02-07T15:54:25.613Z,99948.98
2019-02-07T15:56:55.295Z,99949.98
2019-02-07T15:59:30.137Z,99946.61
2019-02-07T16:02:16.850Z,99944.77
2019-02-07T16:04:47.258Z,99950.91
2019-02-07T16:07:17.358Z,99948.33
2019-02-07T16:09:47.307Z,99951.97
2019-02-07T16:12:17.313Z,99955.32
2019-02-07T16:14:47.107Z,99960.02
2019-02-07T16:17:17.221Z,99973.05
2019-02-07T16:19:46.983Z,99965.63
2019-02-07T16:22:16.523Z,99961.02
2019-02-07T16:24:46.187Z,99963.13
2019-02-07T16:27:15.977Z,99966.09
2019-02-07T16:29:45.556Z,99969.47
2019-02-07T16:32:15.267Z,99974.59
2019-02-07T16:34:44.883Z,99975.52
2019-02-07T16:37:14.611Z,99979.78
2019-02-07T16:39:44.221Z,99976.11
2019-02-07T16:42:13.785Z,99980.25
2019-02-07T16:44:43.649Z,99982.34
2019-02-07T16:47:13.133Z,99983.30
2019-02-07T16:49:42.879Z,99980.66
2019-02-07T16:52:12.758Z,99985.28
2019-02-07T16:54:42.368Z,99973.75
2019-02-07T16:57:12.178Z,99987.13
2019-02-07T16:59:41.979Z,99982.62
2019-02-07T17:02:11.579Z,99975.62
2019-02-07T17:04:41.416Z,99979.45
2019-02-07T17:07:11.015Z,99980.64
2019-02-07T17:09:41.978Z,99967.67
2019-02-07T17:12:11.963Z,99980.13
2019-02-07T17:14:42.509Z,99971.69
2019-02-07T17:17:12.085Z,99986.34
2019-02-07T17:19:42.024Z,99987.66
2019-02-07T17:22:11.539Z,99997.55
2019-02-07T17:24:41.361Z,99991.13
2019-02-07T17:27:10.938Z,99995.86
2019-02-07T17:29:41.028Z,99993.88
2019-02-07T17:32:11.160Z,99995.91
2019-02-07T17:34:40.999Z,99980.00
2019-02-07T17:37:10.568Z,99991.78
2019-02-07T17:39:40.630Z,99995.06
2019-02-07T17:42:10.746Z,99989.11
2019-02-07T17:44:40.494Z,99985.76
2019-02-07T17:47:11.041Z,99985.18
2019-02-07T17:49:40.577Z,99996.31
2019-02-07T17:52:10.169Z,99995.66
2019-02-07T17:54:40.074Z,99994.63
2019-02-07T17:57:09.812Z,100005.67
2019-02-07T17:59:39.692Z,100007.59
2019-02-07T18:02:12.324Z,100002.20
2019-02-07T18:04:44.086Z,100012.41
2019-02-07T18:07:13.436Z,100013.16
2019-02-07T18:09:44.382Z,100017.73
2019-02-07T18:12:14.125Z,100016.56
2019-02-07T18:14:44.047Z,100022.19
2019-02-07T18:17:13.634Z,100033.13
2019-02-07T18:19:43.523Z,100012.74
2019-02-07T18:22:13.382Z,100037.31
2019-02-07T18:24:43.138Z,100038.09
2019-02-07T18:27:12.987Z,100041.79
2019-02-07T18:29:42.594Z,100026.31
2019-02-07T18:32:12.109Z,100040.02
2019-02-07T18:34:41.792Z,100048.06
2019-02-07T18:37:11.431Z,100040.67
2019-02-07T18:39:41.563Z,100038.84
2019-02-07T18:42:11.057Z,100053.22
2019-02-07T18:44:40.664Z,100057.09
2019-02-07T18:47:10.435Z,100056.44
2019-02-07T18:49:40.005Z,100047.83
2019-02-07T18:52:10.034Z,100051.89
2019-02-07T18:54:40.071Z,100061.98
2019-02-07T18:57:10.647Z,100054.94
2019-02-07T18:59:40.398Z,100053.91
2019-02-07T19:02:10.159Z,100053.05
2019-02-07T19:04:39.739Z,100048.89
2019-02-07T19:07:09.851Z,100040.30
2019-02-07T19:09:39.405Z,100046.78
2019-02-07T19:12:09.025Z,100057.51
2019-02-07T19:14:39.257Z,100046.70
2019-02-07T19:17:09.128Z,100045.94
2019-02-07T19:19:39.000Z,100044.16
2019-02-07T19:22:08.525Z,100039.17
2019-02-07T19:24:38.357Z,100037.16
2019-02-07T19:27:09.194Z,100041.38
2019-02-07T19:29:38.935Z,100050.20
2019-02-07T19:32:09.166Z,100040.25
2019-02-07T19:34:38.960Z,100053.06
2019-02-07T19:37:08.646Z,100049.27
2019-02-07T19:39:38.334Z,100050.06
2019-02-07T19:42:07.832Z,100039.59
2019-02-07T19:44:37.898Z,100035.94
2019-02-07T19:47:07.885Z,100049.84
2019-02-07T19:49:37.503Z,100039.09
2019-02-07T19:52:08.451Z,100040.39
2019-02-07T19:54:38.167Z,100046.29
2019-02-07T19:57:07.676Z,100046.80
2019-02-07T19:59:37.472Z,100049.32
2019-02-07T20:02:07.678Z,100053.83
2019-02-07T20:04:37.559Z,100049.32
2019-02-07T20:07:07.471Z,100047.33
2019-02-07T20:09:37.104Z,100050.08
2019-02-07T20:12:06.905Z,100051.25
2019-02-07T20:14:36.463Z,100055.55
2019-02-07T20:17:05.977Z,100054.09
2019-02-07T20:19:35.558Z,100070.66
2019-02-07T20:22:05.281Z,100077.96
2019-02-07T20:24:45.406Z,100066.97
2019-02-07T20:27:06.201Z,100064.82
2019-02-07T20:29:36.237Z,100072.30
2019-02-07T20:32:05.836Z,100071.70
2019-02-07T20:34:35.641Z,100064.63
2019-02-07T20:37:05.282Z,100079.42
2019-02-07T20:39:34.991Z,100076.75
2019-02-07T20:42:04.831Z,100076.70
2019-02-07T20:44:34.801Z,100079.84
2019-02-07T20:47:07.468Z,100072.36
2019-02-07T20:49:37.395Z,100080.55
2019-02-07T20:52:07.438Z,100083.06
2019-02-07T20:54:38.602Z,100079.32
2019-02-07T20:57:08.268Z,100086.39
2019-02-07T20:59:38.270Z,100087.84
2019-02-07T21:02:08.143Z,100084.52
2019-02-07T21:04:39.162Z,100081.80
2019-02-07T21:07:08.856Z,100083.63
2019-02-07T21:09:39.564Z,100102.16
2019-02-07T21:12:09.417Z,100098.70
2019-02-07T21:14:40.168Z,100100.48
2019-02-07T21:17:10.177Z,100102.12
2019-02-07T21:19:39.961Z,100109.33
2019-02-07T21:22:09.518Z,100106.47
2019-02-07T21:24:39.613Z,100111.37
2019-02-07T21:27:09.198Z,100105.39
2019-02-07T21:29:39.224Z,100116.48
2019-02-07T21:32:10.680Z,100115.41
2019-02-07T21:34:40.635Z,100118.03
2019-02-07T21:37:10.646Z,100122.43
2019-02-07T21:39:40.447Z,100135.41
2019-02-07T21:42:10.733Z,100132.26
2019-02-07T21:44:41.025Z,100123.17
2019-02-07T21:47:10.529Z,100136.72
2019-02-07T21:49:41.067Z,100144.33
2019-02-07T21:52:10.557Z,100137.41
2019-02-07T21:54:40.177Z,100145.03
2019-02-07T21:57:10.126Z,100159.08
2019-02-07T21:59:39.910Z,100151.39
2019-02-07T22:02:09.614Z,100158.93
2019-02-07T22:04:39.493Z,100174.33
2019-02-07T22:07:09.075Z,100174.97
2019-02-07T22:09:39.176Z,100178.20
2019-02-07T22:12:08.699Z,100179.28
2019-02-07T22:14:39.240Z,100189.61
2019-02-07T22:17:09.421Z,100187.97
2019-02-07T22:19:39.158Z,100192.25
2019-02-07T22:22:08.645Z,100188.14
2019-02-07T22:24:38.160Z,100173.64
2019-02-07T22:27:07.749Z,100177.13
2019-02-07T22:29:37.394Z,100173.70
2019-02-07T22:32:07.378Z,100180.59
2019-02-07T22:34:36.940Z,100182.95
2019-02-07T22:37:06.551Z,100180.00
2019-02-07T22:39:36.197Z,100168.67
2019-02-07T22:42:06.088Z,100175.00
2019-02-07T22:44:35.663Z,100177.75
2019-02-07T22:47:05.462Z,100183.00
2019-02-07T22:49:35.230Z,100175.86
2019-02-07T22:52:05.216Z,100175.48
2019-02-07T22:54:34.981Z,100177.41
2019-02-07T22:57:04.779Z,100177.56
2019-02-07T22:59:34.270Z,100170.70
2019-02-07T23:02:05.982Z,100158.78
2019-02-07T23:04:35.719Z,100179.92
2019-02-07T23:07:05.606Z,100178.72
2019-02-07T23:09:35.806Z,100193.64
2019-02-07T23:12:05.967Z,100194.44
2019-02-07T23:14:35.751Z,100194.33
2019-02-07T23:17:05.564Z,100192.22
2019-02-07T23:19:35.284Z,100194.20
2019-02-07T23:22:05.551Z,100193.86
2019-02-07T23:24:35.552Z,100205.55
2019-02-07T23:27:05.730Z,100198.93
2019-02-07T23:29:35.454Z,100206.33
2019-02-07T23:32:05.239Z,100200.95
2019-02-07T23:34:35.001Z,100202.65
2019-02-07T23:37:04.933Z,100214.31
2019-02-07T23:39:34.671Z,100223.55
2019-02-07T23:42:04.264Z,100226.77
2019-02-07T23:44:33.785Z,100236.70
2019-02-07T23:47:03.319Z,100239.36
2019-02-07T23:49:32.810Z,100237.37
2019-02-07T23:52:02.325Z,100248.78
2019-02-07T23:54:32.122Z,100248.78
2019-02-07T23:57:01.873Z,100250.42
2019-02-07T23:59:31.385Z,100255.33
